Orange8 — JL6278 — position and weather

sailwx.info

Track history (hours):
 
Tides and Currents Weather Stations Pressure Air Temp Water Temp Dewpoint Dewpoint Depression Visibility Wind Speed Wind Dir Waves Ship Positions

Orange8

Last reported at 2015-Jan-31 14:33 UTC. Time now 2015-Jan-31 14:40 UTC.
Position N 34°37' E 134°57'.

Length 164 m; draft 5 m.

Type: Passenger vessel. MMSI: 431501603.

Date/timePositionNaut miles runAvg speedWind from/ knotsBaromVisibWave heightAir tempDewpointWater temp
2015-Jan-31 14:33N 34°37' E 134°57'1717.1
2015-Jan-31 13:33N 34°36' E 135°18'7 6.3
2015-Jan-31 12:31N 34°37' E 135°26'0 0.0
2015-Jan-31 11:31N 34°37' E 135°26'0 0.0
2015-Jan-31 10:31N 34°37' E 135°26'0 0.0
2015-Jan-31 09:31N 34°37' E 135°26'0 0.0
2015-Jan-31 08:25N 34°37' E 135°26'0 0.0
2015-Jan-31 07:13N 34°37' E 135°26'0 0.0
2015-Jan-31 06:31N 34°37' E 135°26'0 0.0
2015-Jan-31 05:31N 34°37' E 135°26'0 0.0
2015-Jan-31 04:31N 34°37' E 135°26'0 0.0
2015-Jan-31 03:31N 34°37' E 135°26'0 0.0
2015-Jan-31 02:31N 34°37' E 135°26'0 0.0
2015-Jan-31 01:31N 34°37' E 135°26'0 0.0
2015-Jan-31 00:19N 34°37' E 135°26'0 0.0
2015-Jan-30 23:31N 34°37' E 135°26'0 0.0
2015-Jan-30 22:25N 34°37' E 135°26'0 0.0
2015-Jan-30 21:31N 34°37' E 135°26'6 6.1
2015-Jan-30 20:33N 34°36' E 135°19'1817.7
2015-Jan-30 19:32N 34°36' E 134°57'2 0.1
2015-Jan-29 14:33N 34°38' E 134°59'1717.0
2015-Jan-29 13:33N 34°37' E 135°20'5 4.9
2015-Jan-29 12:32N 34°37' E 135°26'0 0.0
2015-Jan-29 11:20N 34°37' E 135°26'0 0.0
2015-Jan-29 10:26N 34°37' E 135°26'0 0.0
2015-Jan-29 09:32N 34°37' E 135°26'0 0.0
2015-Jan-29 08:26N 34°37' E 135°26'0 0.0
2015-Jan-29 07:26N 34°37' E 135°26'0 0.0
2015-Jan-29 06:20N 34°37' E 135°26'0 0.0
2015-Jan-29 05:32N 34°37' E 135°26'0 0.0
2015-Jan-29 04:32N 34°37' E 135°26'0 0.0
2015-Jan-29 03:26N 34°37' E 135°26'0 0.0
2015-Jan-29 02:26N 34°37' E 135°26'0 0.0
2015-Jan-29 01:32N 34°37' E 135°26'0 0.0
2015-Jan-29 00:20N 34°37' E 135°26'0 0.0
2015-Jan-28 23:32N 34°37' E 135°26'0 0.0
2015-Jan-28 22:32N 34°37' E 135°26'0 0.0
2015-Jan-28 21:26N 34°37' E 135°26'7 8.1
2015-Jan-28 20:33N 34°35' E 135°18'1817.8
2015-Jan-28 19:33N 34°36' E 134°56'2 0.1
2015-Jan-27 14:31N 34°37' E 134°58'1717.8
2015-Jan-27 13:33N 34°37' E 135°18'6 4.4
2015-Jan-27 12:09N 34°37' E 135°26'0 0.0
2015-Jan-27 11:33N 34°37' E 135°26'0 0.0
2015-Jan-27 10:33N 34°37' E 135°26'0 0.0
2015-Jan-27 09:33N 34°37' E 135°26'0 0.0
2015-Jan-27 08:33N 34°37' E 135°26'0 0.0
2015-Jan-27 07:33N 34°37' E 135°26'0 0.0
2015-Jan-27 06:21N 34°37' E 135°26'0 0.0
2015-Jan-27 05:27N 34°37' E 135°26'0 0.0
2015-Jan-27 04:33N 34°37' E 135°26'0 0.0
2015-Jan-27 03:33N 34°37' E 135°26'0 0.0
2015-Jan-27 02:33N 34°37' E 135°26'0 0.0
2015-Jan-27 01:27N 34°37' E 135°26'0 0.0
2015-Jan-27 00:33N 34°37' E 135°26'0 0.0
2015-Jan-26 23:33N 34°37' E 135°26'0 0.0
2015-Jan-26 22:33N 34°37' E 135°26'0 0.0
2015-Jan-26 21:33N 34°37' E 135°26'5 4.7
2015-Jan-26 20:33N 34°36' E 135°20'1818.3
2015-Jan-26 19:33N 34°37' E 134°58'13 0.4
2015-Jan-25 15:04N 34°32' E 134°44'1019.8
2015-Jan-25 14:33N 34°36' E 134°55'1818.8
2015-Jan-25 13:34N 34°37' E 135°18'7 6.5
2015-Jan-25 12:32N 34°37' E 135°26'0 0.0
2015-Jan-25 11:32N 34°37' E 135°26'0 0.0
2015-Jan-25 10:32N 34°37' E 135°26'0 0.0
2015-Jan-25 09:32N 34°37' E 135°26'0 0.0
2015-Jan-25 08:32N 34°37' E 135°26'0 0.0
2015-Jan-25 07:32N 34°37' E 135°26'0 0.0
2015-Jan-25 06:26N 34°37' E 135°26'0 0.0
2015-Jan-25 05:32N 34°37' E 135°26'0 0.0
2015-Jan-25 04:32N 34°37' E 135°26'0 0.0
2015-Jan-25 03:32N 34°37' E 135°26'0 0.0
2015-Jan-25 02:26N 34°37' E 135°26'0 0.0
2015-Jan-25 01:32N 34°37' E 135°26'0 0.0
2015-Jan-25 00:26N 34°37' E 135°26'0 0.0
2015-Jan-24 23:32N 34°37' E 135°26'0 0.0
2015-Jan-24 22:32N 34°37' E 135°26'0 0.0
2015-Jan-24 21:32N 34°37' E 135°26'5 5.2
2015-Jan-24 20:33N 34°36' E 135°20'1818.5
2015-Jan-24 19:34N 34°36' E 134°57'2 0.1
2015-Jan-23 14:33N 34°36' E 134°55'1919.4
2015-Jan-23 13:33N 34°37' E 135°19'6 5.6
2015-Jan-23 12:30N 34°37' E 135°26'0 0.0
2015-Jan-23 11:24N 34°37' E 135°26'0 0.0
2015-Jan-23 10:30N 34°37' E 135°26'0 0.0
2015-Jan-23 09:24N 34°37' E 135°26'0 0.0
2015-Jan-23 08:33N 34°37' E 135°26'0 0.0
2015-Jan-23 07:21N 34°37' E 135°26'0 0.0
2015-Jan-23 06:33N 34°37' E 135°26'0 0.0
2015-Jan-23 05:27N 34°37' E 135°26'0 0.0
2015-Jan-23 04:27N 34°37' E 135°26'0 0.0
2015-Jan-23 03:33N 34°37' E 135°26'0 0.0
2015-Jan-23 02:21N 34°37' E 135°26'0 0.0
2015-Jan-23 01:33N 34°37' E 135°26'0 0.0
2015-Jan-23 00:33N 34°37' E 135°26'0 0.0
2015-Jan-22 23:33N 34°37' E 135°26'0 0.0
2015-Jan-22 21:07N 34°37' E 135°26'5 8.5
2015-Jan-22 20:33N 34°36' E 135°20'1817.6
2015-Jan-22 19:33N 34°37' E 134°59'2 0.1
2015-Jan-21 14:33N 34°37' E 134°57'  
Track history (hours):
 
Tides and Currents Weather Stations Pressure Air Temp Water Temp Dewpoint Dewpoint Depression Visibility Wind Speed Wind Dir Waves Ship Positions

Orange8

Last reported at 2015-Jan-31 14:33 UTC. Time now 2015-Jan-31 14:40 UTC.
Position N 34°37' E 134°57'.

Length 164 m; draft 5 m.

Type: Passenger vessel. MMSI: 431501603.

Date/timePositionNaut miles runAvg speedWind from/ knotsBaromVisibWave heightAir tempDewpointWater temp
2015-Jan-31 14:33N 34°37' E 134°57'1717.1
2015-Jan-31 13:33N 34°36' E 135°18'7 6.3
2015-Jan-31 12:31N 34°37' E 135°26'0 0.0
2015-Jan-31 11:31N 34°37' E 135°26'0 0.0
2015-Jan-31 10:31N 34°37' E 135°26'0 0.0
2015-Jan-31 09:31N 34°37' E 135°26'0 0.0
2015-Jan-31 08:25N 34°37' E 135°26'0 0.0
2015-Jan-31 07:13N 34°37' E 135°26'0 0.0
2015-Jan-31 06:31N 34°37' E 135°26'0 0.0
2015-Jan-31 05:31N 34°37' E 135°26'0 0.0
2015-Jan-31 04:31N 34°37' E 135°26'0 0.0
2015-Jan-31 03:31N 34°37' E 135°26'0 0.0
2015-Jan-31 02:31N 34°37' E 135°26'0 0.0
2015-Jan-31 01:31N 34°37' E 135°26'0 0.0
2015-Jan-31 00:19N 34°37' E 135°26'0 0.0
2015-Jan-30 23:31N 34°37' E 135°26'0 0.0
2015-Jan-30 22:25N 34°37' E 135°26'0 0.0
2015-Jan-30 21:31N 34°37' E 135°26'6 6.1
2015-Jan-30 20:33N 34°36' E 135°19'1817.7
2015-Jan-30 19:32N 34°36' E 134°57'2 0.1
2015-Jan-29 14:33N 34°38' E 134°59'1717.0
2015-Jan-29 13:33N 34°37' E 135°20'5 4.9
2015-Jan-29 12:32N 34°37' E 135°26'0 0.0
2015-Jan-29 11:20N 34°37' E 135°26'0 0.0
2015-Jan-29 10:26N 34°37' E 135°26'0 0.0
2015-Jan-29 09:32N 34°37' E 135°26'0 0.0
2015-Jan-29 08:26N 34°37' E 135°26'0 0.0
2015-Jan-29 07:26N 34°37' E 135°26'0 0.0
2015-Jan-29 06:20N 34°37' E 135°26'0 0.0
2015-Jan-29 05:32N 34°37' E 135°26'0 0.0
2015-Jan-29 04:32N 34°37' E 135°26'0 0.0
2015-Jan-29 03:26N 34°37' E 135°26'0 0.0
2015-Jan-29 02:26N 34°37' E 135°26'0 0.0
2015-Jan-29 01:32N 34°37' E 135°26'0 0.0
2015-Jan-29 00:20N 34°37' E 135°26'0 0.0
2015-Jan-28 23:32N 34°37' E 135°26'0 0.0
2015-Jan-28 22:32N 34°37' E 135°26'0 0.0
2015-Jan-28 21:26N 34°37' E 135°26'7 8.1
2015-Jan-28 20:33N 34°35' E 135°18'1817.8
2015-Jan-28 19:33N 34°36' E 134°56'2 0.1
2015-Jan-27 14:31N 34°37' E 134°58'1717.8
2015-Jan-27 13:33N 34°37' E 135°18'6 4.4
2015-Jan-27 12:09N 34°37' E 135°26'0 0.0
2015-Jan-27 11:33N 34°37' E 135°26'0 0.0
2015-Jan-27 10:33N 34°37' E 135°26'0 0.0
2015-Jan-27 09:33N 34°37' E 135°26'0 0.0
2015-Jan-27 08:33N 34°37' E 135°26'0 0.0
2015-Jan-27 07:33N 34°37' E 135°26'0 0.0
2015-Jan-27 06:21N 34°37' E 135°26'0 0.0
2015-Jan-27 05:27N 34°37' E 135°26'0 0.0
2015-Jan-27 04:33N 34°37' E 135°26'0 0.0
2015-Jan-27 03:33N 34°37' E 135°26'0 0.0
2015-Jan-27 02:33N 34°37' E 135°26'0 0.0
2015-Jan-27 01:27N 34°37' E 135°26'0 0.0
2015-Jan-27 00:33N 34°37' E 135°26'0 0.0
2015-Jan-26 23:33N 34°37' E 135°26'0 0.0
2015-Jan-26 22:33N 34°37' E 135°26'0 0.0
2015-Jan-26 21:33N 34°37' E 135°26'5 4.7
2015-Jan-26 20:33N 34°36' E 135°20'1818.3
2015-Jan-26 19:33N 34°37' E 134°58'13 0.4
2015-Jan-25 15:04N 34°32' E 134°44'1019.8
2015-Jan-25 14:33N 34°36' E 134°55'1818.8
2015-Jan-25 13:34N 34°37' E 135°18'7 6.5
2015-Jan-25 12:32N 34°37' E 135°26'0 0.0
2015-Jan-25 11:32N 34°37' E 135°26'0 0.0
2015-Jan-25 10:32N 34°37' E 135°26'0 0.0
2015-Jan-25 09:32N 34°37' E 135°26'0 0.0
2015-Jan-25 08:32N 34°37' E 135°26'0 0.0
2015-Jan-25 07:32N 34°37' E 135°26'0 0.0
2015-Jan-25 06:26N 34°37' E 135°26'0 0.0
2015-Jan-25 05:32N 34°37' E 135°26'0 0.0
2015-Jan-25 04:32N 34°37' E 135°26'0 0.0
2015-Jan-25 03:32N 34°37' E 135°26'0 0.0
2015-Jan-25 02:26N 34°37' E 135°26'0 0.0
2015-Jan-25 01:32N 34°37' E 135°26'0 0.0
2015-Jan-25 00:26N 34°37' E 135°26'0 0.0
2015-Jan-24 23:32N 34°37' E 135°26'0 0.0
2015-Jan-24 22:32N 34°37' E 135°26'0 0.0
2015-Jan-24 21:32N 34°37' E 135°26'5 5.2
2015-Jan-24 20:33N 34°36' E 135°20'1818.5
2015-Jan-24 19:34N 34°36' E 134°57'2 0.1
2015-Jan-23 14:33N 34°36' E 134°55'1919.4
2015-Jan-23 13:33N 34°37' E 135°19'6 5.6
2015-Jan-23 12:30N 34°37' E 135°26'0 0.0
2015-Jan-23 11:24N 34°37' E 135°26'0 0.0
2015-Jan-23 10:30N 34°37' E 135°26'0 0.0
2015-Jan-23 09:24N 34°37' E 135°26'0 0.0
2015-Jan-23 08:33N 34°37' E 135°26'0 0.0
2015-Jan-23 07:21N 34°37' E 135°26'0 0.0
2015-Jan-23 06:33N 34°37' E 135°26'0 0.0
2015-Jan-23 05:27N 34°37' E 135°26'0 0.0
2015-Jan-23 04:27N 34°37' E 135°26'0 0.0
2015-Jan-23 03:33N 34°37' E 135°26'0 0.0
2015-Jan-23 02:21N 34°37' E 135°26'0 0.0
2015-Jan-23 01:33N 34°37' E 135°26'0 0.0
2015-Jan-23 00:33N 34°37' E 135°26'0 0.0
2015-Jan-22 23:33N 34°37' E 135°26'0 0.0
2015-Jan-22 21:07N 34°37' E 135°26'5 8.5
2015-Jan-22 20:33N 34°36' E 135°20'1817.6
2015-Jan-22 19:33N 34°37' E 134°59'2 0.1
2015-Jan-21 14:33N 34°37' E 134°57'  

Dump ship's entire track history